sensor_id;sensor_type;location;lat;lon;timestamp;pressure;altitude;pressure_sealevel;temperature;humidity
53246;BME280;39569;51.090;-1.786;2023-05-12T00:01:58;101237.09;;;20.22;48.09
53246;BME280;39569;51.090;-1.786;2023-05-12T00:04:24;101243.94;;;20.06;48.28
53246;BME280;39569;51.090;-1.786;2023-05-12T00:06:51;101238.75;;;20.05;48.03
53246;BME280;39569;51.090;-1.786;2023-05-12T00:09:18;101237.91;;;20.04;48.00
53246;BME280;39569;51.090;-1.786;2023-05-12T00:11:46;101239.91;;;19.91;48.41
53246;BME280;39569;51.090;-1.786;2023-05-12T00:14:13;101238.78;;;19.98;47.96
53246;BME280;39569;51.090;-1.786;2023-05-12T00:16:41;101243.38;;;19.98;47.84
53246;BME280;39569;51.090;-1.786;2023-05-12T00:19:07;101246.00;;;19.86;47.85
53246;BME280;39569;51.090;-1.786;2023-05-12T00:21:34;101253.56;;;20.02;47.51
53246;BME280;39569;51.090;-1.786;2023-05-12T00:24:02;101241.94;;;19.95;47.53
53246;BME280;39569;51.090;-1.786;2023-05-12T00:26:28;101239.13;;;19.84;47.66
53246;BME280;39569;51.090;-1.786;2023-05-12T00:28:56;101254.91;;;19.69;48.05
53246;BME280;39569;51.090;-1.786;2023-05-12T00:31:23;101251.97;;;19.70;47.72
53246;BME280;39569;51.090;-1.786;2023-05-12T00:33:50;101256.13;;;19.73;47.60
53246;BME280;39569;51.090;-1.786;2023-05-12T00:36:17;101262.00;;;19.70;47.75
53246;BME280;39569;51.090;-1.786;2023-05-12T00:38:44;101260.53;;;19.67;47.99
53246;BME280;39569;51.090;-1.786;2023-05-12T00:41:10;101260.78;;;19.66;47.90
53246;BME280;39569;51.090;-1.786;2023-05-12T00:43:37;101259.88;;;19.47;48.05
53246;BME280;39569;51.090;-1.786;2023-05-12T00:46:06;101268.78;;;19.54;47.92
53246;BME280;39569;51.090;-1.786;2023-05-12T00:48:34;101266.44;;;19.57;47.85
53246;BME280;39569;51.090;-1.786;2023-05-12T00:51:02;101268.69;;;19.36;48.10
53246;BME280;39569;51.090;-1.786;2023-05-12T00:53:29;101274.13;;;19.36;48.14
53246;BME280;39569;51.090;-1.786;2023-05-12T00:55:56;101280.94;;;19.38;48.07
53246;BME280;39569;51.090;-1.786;2023-05-12T00:58:23;101275.63;;;19.19;48.24
53246;BME280;39569;51.090;-1.786;2023-05-12T01:00:50;101287.03;;;19.27;48.22
53246;BME280;39569;51.090;-1.786;2023-05-12T01:03:18;101290.03;;;19.19;48.37
53246;BME280;39569;51.090;-1.786;2023-05-12T01:05:48;101285.00;;;19.23;48.12
53246;BME280;39569;51.090;-1.786;2023-05-12T01:08:16;101287.09;;;19.21;48.04
53246;BME280;39569;51.090;-1.786;2023-05-12T01:10:45;101290.03;;;19.13;48.41
53246;BME280;39569;51.090;-1.786;2023-05-12T01:13:12;101289.03;;;19.07;48.27
53246;BME280;39569;51.090;-1.786;2023-05-12T01:15:41;101294.66;;;19.12;48.14
53246;BME280;39569;51.090;-1.786;2023-05-12T01:18:10;101299.00;;;19.13;48.37
53246;BME280;39569;51.090;-1.786;2023-05-12T01:20:41;101295.22;;;19.14;48.49
53246;BME280;39569;51.090;-1.786;2023-05-12T01:23:08;101293.97;;;19.23;48.32
53246;BME280;39569;51.090;-1.786;2023-05-12T01:25:38;101302.72;;;19.19;48.39
53246;BME280;39569;51.090;-1.786;2023-05-12T01:28:07;101297.06;;;19.27;48.16
53246;BME280;39569;51.090;-1.786;2023-05-12T01:30:35;101296.69;;;19.17;48.55
53246;BME280;39569;51.090;-1.786;2023-05-12T01:33:03;101299.25;;;19.05;48.54
53246;BME280;39569;51.090;-1.786;2023-05-12T01:35:31;101297.09;;;19.20;48.37
53246;BME280;39569;51.090;-1.786;2023-05-12T01:37:58;101296.91;;;19.15;48.55
53246;BME280;39569;51.090;-1.786;2023-05-12T01:40:25;101303.41;;;19.01;48.73
53246;BME280;39569;51.090;-1.786;2023-05-12T01:42:52;101302.50;;;19.20;48.24
53246;BME280;39569;51.090;-1.786;2023-05-12T01:45:20;101308.75;;;19.21;48.37
53246;BME280;39569;51.090;-1.786;2023-05-12T01:47:47;101311.69;;;19.19;48.39
53246;BME280;39569;51.090;-1.786;2023-05-12T01:50:14;101313.00;;;19.10;48.34
53246;BME280;39569;51.090;-1.786;2023-05-12T01:52:40;101312.38;;;19.08;48.36
53246;BME280;39569;51.090;-1.786;2023-05-12T01:55:08;101318.19;;;19.12;48.58
53246;BME280;39569;51.090;-1.786;2023-05-12T01:57:35;101315.25;;;19.13;48.32
53246;BME280;39569;51.090;-1.786;2023-05-12T02:00:02;101319.47;;;19.03;48.74
53246;BME280;39569;51.090;-1.786;2023-05-12T02:02:31;101324.06;;;19.02;48.74
53246;BME280;39569;51.090;-1.786;2023-05-12T02:04:58;101321.41;;;18.89;48.86
53246;BME280;39569;51.090;-1.786;2023-05-12T02:07:25;101324.44;;;19.12;48.53
53246;BME280;39569;51.090;-1.786;2023-05-12T02:09:52;101324.66;;;19.04;48.44
53246;BME280;39569;51.090;-1.786;2023-05-12T02:12:19;101325.97;;;18.95;48.45
53246;BME280;39569;51.090;-1.786;2023-05-12T02:14:46;101321.00;;;18.86;48.80
53246;BME280;39569;51.090;-1.786;2023-05-12T02:17:13;101332.66;;;18.86;48.52
53246;BME280;39569;51.090;-1.786;2023-05-12T02:19:42;101330.75;;;18.87;48.75
53246;BME280;39569;51.090;-1.786;2023-05-12T02:22:09;101332.44;;;18.81;49.03
53246;BME280;39569;51.090;-1.786;2023-05-12T02:24:36;101328.50;;;18.84;48.71
53246;BME280;39569;51.090;-1.786;2023-05-12T02:27:03;101327.25;;;18.80;48.87
53246;BME280;39569;51.090;-1.786;2023-05-12T02:29:29;101331.59;;;18.87;48.86
53246;BME280;39569;51.090;-1.786;2023-05-12T02:31:56;101333.31;;;18.75;49.02
53246;BME280;39569;51.090;-1.786;2023-05-12T02:34:24;101334.03;;;19.02;48.70
53246;BME280;39569;51.090;-1.786;2023-05-12T02:36:52;101333.03;;;18.96;48.84
53246;BME280;39569;51.090;-1.786;2023-05-12T02:39:18;101327.88;;;18.88;48.69
53246;BME280;39569;51.090;-1.786;2023-05-12T02:41:45;101337.69;;;18.76;48.98
53246;BME280;39569;51.090;-1.786;2023-05-12T02:44:12;101344.19;;;18.62;49.34
53246;BME280;39569;51.090;-1.786;2023-05-12T02:46:40;101339.53;;;18.76;49.17
53246;BME280;39569;51.090;-1.786;2023-05-12T02:49:07;101333.47;;;18.87;48.83
53246;BME280;39569;51.090;-1.786;2023-05-12T02:51:34;101346.63;;;18.70;49.01
53246;BME280;39569;51.090;-1.786;2023-05-12T02:54:02;101347.25;;;18.79;49.00
53246;BME280;39569;51.090;-1.786;2023-05-12T02:56:29;101339.94;;;18.79;48.91
53246;BME280;39569;51.090;-1.786;2023-05-12T02:58:56;101339.56;;;18.62;49.12
53246;BME280;39569;51.090;-1.786;2023-05-12T03:01:23;101338.34;;;18.65;49.20
53246;BME280;39569;51.090;-1.786;2023-05-12T03:03:50;101330.84;;;18.67;48.82
53246;BME280;39569;51.090;-1.786;2023-05-12T03:06:16;101342.28;;;18.69;48.93
53246;BME280;39569;51.090;-1.786;2023-05-12T03:08:43;101344.19;;;18.62;49.20
53246;BME280;39569;51.090;-1.786;2023-05-12T03:11:11;101347.09;;;18.54;49.35
53246;BME280;39569;51.090;-1.786;2023-05-12T03:13:38;101350.25;;;18.51;49.15
53246;BME280;39569;51.090;-1.786;2023-05-12T03:16:05;101351.03;;;18.64;49.03
53246;BME280;39569;51.090;-1.786;2023-05-12T03:18:32;101352.53;;;18.47;49.34
53246;BME280;39569;51.090;-1.786;2023-05-12T03:20:59;101352.09;;;18.50;49.49
53246;BME280;39569;51.090;-1.786;2023-05-12T03:23:26;101351.25;;;18.50;49.44
53246;BME280;39569;51.090;-1.786;2023-05-12T03:25:52;101358.75;;;18.54;49.39
53246;BME280;39569;51.090;-1.786;2023-05-12T03:28:21;101364.56;;;18.51;49.65
53246;BME280;39569;51.090;-1.786;2023-05-12T03:30:49;101362.47;;;18.40;49.60
53246;BME280;39569;51.090;-1.786;2023-05-12T03:33:15;101368.34;;;18.50;49.31
53246;BME280;39569;51.090;-1.786;2023-05-12T03:35:42;101374.16;;;18.28;50.12
53246;BME280;39569;51.090;-1.786;2023-05-12T03:38:09;101380.41;;;18.54;49.71
53246;BME280;39569;51.090;-1.786;2023-05-12T03:40:36;101373.31;;;18.53;49.83
53246;BME280;39569;51.090;-1.786;2023-05-12T03:43:03;101385.41;;;18.51;50.07
53246;BME280;39569;51.090;-1.786;2023-05-12T03:45:31;101386.41;;;18.37;50.34
53246;BME280;39569;51.090;-1.786;2023-05-12T03:47:58;101390.38;;;18.41;50.67
53246;BME280;39569;51.090;-1.786;2023-05-12T03:50:24;101387.03;;;18.78;49.84
53246;BME280;39569;51.090;-1.786;2023-05-12T03:52:51;101393.25;;;18.85;49.46
53246;BME280;39569;51.090;-1.786;2023-05-12T03:55:20;101391.59;;;18.84;49.59
53246;BME280;39569;51.090;-1.786;2023-05-12T03:57:47;101391.56;;;18.97;49.57
53246;BME280;39569;51.090;-1.786;2023-05-12T04:00:15;101400.31;;;18.93;49.61
53246;BME280;39569;51.090;-1.786;2023-05-12T04:02:43;101388.25;;;18.82;49.99
53246;BME280;39569;51.090;-1.786;2023-05-12T04:05:10;101398.84;;;18.90;50.01
53246;BME280;39569;51.090;-1.786;2023-05-12T04:07:37;101401.00;;;18.62;50.69
53246;BME280;39569;51.090;-1.786;2023-05-12T04:10:05;101401.16;;;18.87;50.52
53246;BME280;39569;51.090;-1.786;2023-05-12T04:12:32;101404.88;;;18.92;50.53
53246;BME280;39569;51.090;-1.786;2023-05-12T04:14:58;101412.22;;;18.59;52.22
53246;BME280;39569;51.090;-1.786;2023-05-12T04:17:25;101411.94;;;19.00;51.44
53246;BME280;39569;51.090;-1.786;2023-05-12T04:19:53;101414.66;;;19.06;51.66
53246;BME280;39569;51.090;-1.786;2023-05-12T04:22:20;101422.56;;;19.01;51.88
53246;BME280;39569;51.090;-1.786;2023-05-12T04:24:47;101420.41;;;19.36;51.14
53246;BME280;39569;51.090;-1.786;2023-05-12T04:27:14;101426.03;;;19.28;51.67
53246;BME280;39569;51.090;-1.786;2023-05-12T04:29:41;101423.59;;;19.13;51.89
53246;BME280;39569;51.090;-1.786;2023-05-12T04:32:08;101429.81;;;19.20;52.06
53246;BME280;39569;51.090;-1.786;2023-05-12T04:34:34;101424.56;;;19.25;52.06
53246;BME280;39569;51.090;-1.786;2023-05-12T04:37:03;101422.41;;;19.53;51.37
53246;BME280;39569;51.090;-1.786;2023-05-12T04:39:30;101425.00;;;19.35;51.72
53246;BME280;39569;51.090;-1.786;2023-05-12T04:41:58;101421.94;;;19.63;51.12
53246;BME280;39569;51.090;-1.786;2023-05-12T04:44:25;101434.97;;;19.79;51.04
53246;BME280;39569;51.090;-1.786;2023-05-12T04:46:52;101430.47;;;19.67;51.51
53246;BME280;39569;51.090;-1.786;2023-05-12T04:49:20;101439.25;;;20.00;50.72
53246;BME280;39569;51.090;-1.786;2023-05-12T04:51:47;101445.38;;;19.51;51.30
53246;BME280;39569;51.090;-1.786;2023-05-12T04:54:15;101449.91;;;19.95;50.73
53246;BME280;39569;51.090;-1.786;2023-05-12T04:56:42;101457.22;;;19.56;51.76
53246;BME280;39569;51.090;-1.786;2023-05-12T04:59:09;101455.25;;;19.77;51.76
53246;BME280;39569;51.090;-1.786;2023-05-12T05:01:36;101461.66;;;20.20;50.63
53246;BME280;39569;51.090;-1.786;2023-05-12T05:04:03;101462.63;;;20.01;51.07
53246;BME280;39569;51.090;-1.786;2023-05-12T05:06:29;101465.25;;;20.14;50.93
53246;BME280;39569;51.090;-1.786;2023-05-12T05:08:56;101460.47;;;20.40;50.65
53246;BME280;39569;51.090;-1.786;2023-05-12T05:11:24;101464.56;;;20.25;51.10
53246;BME280;39569;51.090;-1.786;2023-05-12T05:13:51;101475.03;;;20.15;51.25
53246;BME280;39569;51.090;-1.786;2023-05-12T05:16:18;101461.78;;;20.38;50.92
53246;BME280;39569;51.090;-1.786;2023-05-12T05:18:45;101464.03;;;20.66;50.57
53246;BME280;39569;51.090;-1.786;2023-05-12T05:21:11;101470.09;;;20.68;50.58
53246;BME280;39569;51.090;-1.786;2023-05-12T05:23:38;101465.19;;;20.51;51.03
53246;BME280;39569;51.090;-1.786;2023-05-12T05:26:06;101472.06;;;20.54;51.06
53246;BME280;39569;51.090;-1.786;2023-05-12T05:28:34;101477.16;;;20.44;51.84
53246;BME280;39569;51.090;-1.786;2023-05-12T05:31:01;101478.78;;;20.94;50.87
53246;BME280;39569;51.090;-1.786;2023-05-12T05:33:28;101476.38;;;20.86;51.11
53246;BME280;39569;51.090;-1.786;2023-05-12T05:35:55;101486.41;;;20.86;51.12
53246;BME280;39569;51.090;-1.786;2023-05-12T05:38:22;101484.53;;;20.62;51.27
53246;BME280;39569;51.090;-1.786;2023-05-12T05:40:49;101491.25;;;21.08;50.74
53246;BME280;39569;51.090;-1.786;2023-05-12T05:43:16;101491.63;;;20.87;51.07
53246;BME280;39569;51.090;-1.786;2023-05-12T05:45:44;101493.06;;;20.65;51.33
53246;BME280;39569;51.090;-1.786;2023-05-12T05:48:11;101503.19;;;20.76;50.98
53246;BME280;39569;51.090;-1.786;2023-05-12T05:50:38;101501.94;;;21.03;50.63
53246;BME280;39569;51.090;-1.786;2023-05-12T05:53:05;101502.78;;;21.04;50.23
53246;BME280;39569;51.090;-1.786;2023-05-12T05:55:32;101513.97;;;21.50;49.49
53246;BME280;39569;51.090;-1.786;2023-05-12T05:57:58;101509.91;;;21.41;49.49
53246;BME280;39569;51.090;-1.786;2023-05-12T06:00:25;101517.91;;;20.93;50.11
53246;BME280;39569;51.090;-1.786;2023-05-12T06:02:53;101511.50;;;20.81;50.29
53246;BME280;39569;51.090;-1.786;2023-05-12T06:05:20;101522.59;;;20.80;49.71
53246;BME280;39569;51.090;-1.786;2023-05-12T06:07:47;101525.31;;;20.80;49.19
53246;BME280;39569;51.090;-1.786;2023-05-12T06:10:14;101532.47;;;20.74;49.38
53246;BME280;39569;51.090;-1.786;2023-05-12T06:12:41;101537.84;;;20.81;49.30
53246;BME280;39569;51.090;-1.786;2023-05-12T06:15:09;101536.63;;;21.01;48.60
53246;BME280;39569;51.090;-1.786;2023-05-12T06:17:36;101536.72;;;20.88;48.10
53246;BME280;39569;51.090;-1.786;2023-05-12T06:20:05;101547.19;;;21.16;48.44
53246;BME280;39569;51.090;-1.786;2023-05-12T06:22:32;101550.69;;;21.41;48.16
53246;BME280;39569;51.090;-1.786;2023-05-12T06:24:59;101554.28;;;21.53;48.44
53246;BME280;39569;51.090;-1.786;2023-05-12T06:27:26;101556.97;;;21.41;48.28
53246;BME280;39569;51.090;-1.786;2023-05-12T06:29:53;101559.34;;;21.31;47.11
53246;BME280;39569;51.090;-1.786;2023-05-12T06:32:20;101561.22;;;21.31;47.01
53246;BME280;39569;51.090;-1.786;2023-05-12T06:34:46;101559.94;;;21.15;46.76
53246;BME280;39569;51.090;-1.786;2023-05-12T06:37:15;101564.19;;;21.47;47.18
53246;BME280;39569;51.090;-1.786;2023-05-12T06:39:42;101567.88;;;20.86;48.08
53246;BME280;39569;51.090;-1.786;2023-05-12T06:42:09;101575.31;;;20.97;47.80
53246;BME280;39569;51.090;-1.786;2023-05-12T06:44:36;101566.09;;;20.98;47.84
53246;BME280;39569;51.090;-1.786;2023-05-12T06:47:03;101577.81;;;21.05;47.09
53246;BME280;39569;51.090;-1.786;2023-05-12T06:49:30;101586.19;;;20.97;47.18
53246;BME280;39569;51.090;-1.786;2023-05-12T06:51:59;101580.06;;;21.32;46.99
53246;BME280;39569;51.090;-1.786;2023-05-12T06:54:28;101588.03;;;21.27;46.55
53246;BME280;39569;51.090;-1.786;2023-05-12T06:56:55;101585.19;;;21.40;46.24
53246;BME280;39569;51.090;-1.786;2023-05-12T06:59:22;101591.41;;;21.66;46.05
53246;BME280;39569;51.090;-1.786;2023-05-12T07:01:49;101585.16;;;22.01;45.53
53246;BME280;39569;51.090;-1.786;2023-05-12T07:04:16;101593.66;;;21.69;46.44
53246;BME280;39569;51.090;-1.786;2023-05-12T07:06:42;101598.50;;;21.67;45.78
53246;BME280;39569;51.090;-1.786;2023-05-12T07:09:09;101601.84;;;22.05;45.44
53246;BME280;39569;51.090;-1.786;2023-05-12T07:11:38;101591.59;;;21.46;46.64
53246;BME280;39569;51.090;-1.786;2023-05-12T07:14:05;101594.63;;;21.81;45.61
53246;BME280;39569;51.090;-1.786;2023-05-12T07:16:32;101596.66;;;21.85;46.03
53246;BME280;39569;51.090;-1.786;2023-05-12T07:18:58;101598.97;;;22.00;45.19
53246;BME280;39569;51.090;-1.786;2023-05-12T07:21:25;101599.13;;;22.23;44.81
53246;BME280;39569;51.090;-1.786;2023-05-12T07:23:53;101607.31;;;22.34;45.15
53246;BME280;39569;51.090;-1.786;2023-05-12T07:26:20;101601.63;;;22.54;45.41
53246;BME280;39569;51.090;-1.786;2023-05-12T07:28:49;101604.81;;;22.81;44.58
53246;BME280;39569;51.090;-1.786;2023-05-12T07:31:17;101598.81;;;23.02;44.33
53246;BME280;39569;51.090;-1.786;2023-05-12T07:33:43;101601.06;;;23.16;43.62
53246;BME280;39569;51.090;-1.786;2023-05-12T07:36:10;101607.31;;;22.94;43.56
53246;BME280;39569;51.090;-1.786;2023-05-12T07:38:37;101605.19;;;22.55;42.98
53246;BME280;39569;51.090;-1.786;2023-05-12T07:41:04;101612.06;;;22.57;44.02
53246;BME280;39569;51.090;-1.786;2023-05-12T07:43:32;101607.78;;;22.31;44.53
53246;BME280;39569;51.090;-1.786;2023-05-12T07:46:00;101600.56;;;22.96;43.33
53246;BME280;39569;51.090;-1.786;2023-05-12T07:48:26;101602.13;;;23.04;43.14
53246;BME280;39569;51.090;-1.786;2023-05-12T07:50:53;101601.09;;;23.63;42.81
53246;BME280;39569;51.090;-1.786;2023-05-12T07:53:20;101606.63;;;22.98;43.67
53246;BME280;39569;51.090;-1.786;2023-05-12T07:55:47;101597.84;;;22.96;43.99
53246;BME280;39569;51.090;-1.786;2023-05-12T07:58:14;101603.63;;;23.53;43.00
53246;BME280;39569;51.090;-1.786;2023-05-12T08:00:40;101598.63;;;23.38;43.33
53246;BME280;39569;51.090;-1.786;2023-05-12T08:03:10;101599.44;;;23.50;42.83
53246;BME280;39569;51.090;-1.786;2023-05-12T08:05:37;101605.34;;;22.60;44.42
53246;BME280;39569;51.090;-1.786;2023-05-12T08:08:04;101600.69;;;23.01;43.96
53246;BME280;39569;51.090;-1.786;2023-05-12T08:10:31;101597.63;;;23.09;43.39
53246;BME280;39569;51.090;-1.786;2023-05-12T08:12:57;101606.50;;;23.05;44.25
53246;BME280;39569;51.090;-1.786;2023-05-12T08:15:24;101604.53;;;23.35;43.76
53246;BME280;39569;51.090;-1.786;2023-05-12T08:17:51;101604.53;;;23.35;43.35
53246;BME280;39569;51.090;-1.786;2023-05-12T08:20:19;101608.81;;;23.31;42.65
53246;BME280;39569;51.090;-1.786;2023-05-12T08:22:46;101612.78;;;23.98;42.84
53246;BME280;39569;51.090;-1.786;2023-05-12T08:25:15;101607.03;;;24.34;42.72
53246;BME280;39569;51.090;-1.786;2023-05-12T08:27:42;101606.28;;;24.38;42.55
53246;BME280;39569;51.090;-1.786;2023-05-12T08:30:10;101609.72;;;25.23;40.52
53246;BME280;39569;51.090;-1.786;2023-05-12T08:32:37;101606.22;;;24.50;40.36
53246;BME280;39569;51.090;-1.786;2023-05-12T08:35:04;101618.28;;;24.38;40.91
53246;BME280;39569;51.090;-1.786;2023-05-12T08:37:32;101614.16;;;24.23;41.48
53246;BME280;39569;51.090;-1.786;2023-05-12T08:39:59;101618.41;;;24.31;41.80
53246;BME280;39569;51.090;-1.786;2023-05-12T08:42:30;101612.63;;;24.56;41.25
53246;BME280;39569;51.090;-1.786;2023-05-12T08:45:01;101610.81;;;24.89;40.36
53246;BME280;39569;51.090;-1.786;2023-05-12T08:47:29;101606.53;;;25.43;38.91
53246;BME280;39569;51.090;-1.786;2023-05-12T08:49:58;101612.78;;;25.10;39.89
53246;BME280;39569;51.090;-1.786;2023-05-12T08:52:26;101619.81;;;24.73;40.54
53246;BME280;39569;51.090;-1.786;2023-05-12T08:54:56;101617.94;;;25.07;40.49
53246;BME280;39569;51.090;-1.786;2023-05-12T08:57:22;101627.28;;;24.94;39.72
53246;BME280;39569;51.090;-1.786;2023-05-12T08:59:52;101621.69;;;25.34;38.97
53246;BME280;39569;51.090;-1.786;2023-05-12T09:02:20;101616.06;;;26.44;39.74
53246;BME280;39569;51.090;-1.786;2023-05-12T09:04:48;101615.63;;;26.52;37.77
53246;BME280;39569;51.090;-1.786;2023-05-12T09:07:15;101612.06;;;25.86;37.88
53246;BME280;39569;51.090;-1.786;2023-05-12T09:09:44;101614.56;;;25.88;38.88
53246;BME280;39569;51.090;-1.786;2023-05-12T09:12:16;101618.88;;;26.49;37.69
53246;BME280;39569;51.090;-1.786;2023-05-12T09:14:44;101624.03;;;26.02;37.41
53246;BME280;39569;51.090;-1.786;2023-05-12T09:17:11;101619.47;;;26.29;37.79
53246;BME280;39569;51.090;-1.786;2023-05-12T09:19:38;101630.09;;;26.95;36.66
53246;BME280;39569;51.090;-1.786;2023-05-12T09:22:05;101625.69;;;26.94;37.16
53246;BME280;39569;51.090;-1.786;2023-05-12T09:24:34;101622.22;;;26.51;36.38
53246;BME280;39569;51.090;-1.786;2023-05-12T09:27:01;101619.59;;;27.51;35.76
53246;BME280;39569;51.090;-1.786;2023-05-12T09:29:30;101609.00;;;27.69;35.82
53246;BME280;39569;51.090;-1.786;2023-05-12T09:31:59;101609.31;;;28.50;34.08
53246;BME280;39569;51.090;-1.786;2023-05-12T09:34:27;101612.31;;;27.76;34.25
53246;BME280;39569;51.090;-1.786;2023-05-12T09:36:55;101622.03;;;27.15;36.07
53246;BME280;39569;51.090;-1.786;2023-05-12T09:39:22;101624.66;;;27.00;35.27
53246;BME280;39569;51.090;-1.786;2023-05-12T09:41:50;101630.31;;;27.26;34.84
53246;BME280;39569;51.090;-1.786;2023-05-12T09:44:17;101618.47;;;26.88;34.17
53246;BME280;39569;51.090;-1.786;2023-05-12T09:46:46;101616.44;;;27.05;34.39
53246;BME280;39569;51.090;-1.786;2023-05-12T09:49:17;101617.03;;;27.39;33.99
53246;BME280;39569;51.090;-1.786;2023-05-12T09:51:44;101620.50;;;28.18;34.36
53246;BME280;39569;51.090;-1.786;2023-05-12T09:54:11;101615.13;;;28.53;34.42
53246;BME280;39569;51.090;-1.786;2023-05-12T09:56:39;101621.59;;;26.97;36.55
53246;BME280;39569;51.090;-1.786;2023-05-12T09:59:08;101623.19;;;27.56;33.47
53246;BME280;39569;51.090;-1.786;2023-05-12T10:01:36;101626.06;;;26.76;36.14
53246;BME280;39569;51.090;-1.786;2023-05-12T10:04:06;101629.28;;;27.68;33.86
53246;BME280;39569;51.090;-1.786;2023-05-12T10:06:38;101625.69;;;27.68;33.65
53246;BME280;39569;51.090;-1.786;2023-05-12T10:09:10;101628.25;;;28.31;34.12
53246;BME280;39569;51.090;-1.786;2023-05-12T10:11:40;101622.75;;;28.31;33.72
53246;BME280;39569;51.090;-1.786;2023-05-12T10:14:08;101618.88;;;27.70;35.99
53246;BME280;39569;51.090;-1.786;2023-05-12T10:16:35;101625.13;;;28.07;33.58
53246;BME280;39569;51.090;-1.786;2023-05-12T10:19:02;101625.97;;;28.08;33.47
53246;BME280;39569;51.090;-1.786;2023-05-12T10:21:31;101625.91;;;28.80;33.61
53246;BME280;39569;51.090;-1.786;2023-05-12T10:23:58;101628.69;;;29.50;33.00
53246;BME280;39569;51.090;-1.786;2023-05-12T10:26:25;101633.31;;;28.59;32.20
53246;BME280;39569;51.090;-1.786;2023-05-12T10:28:52;101627.38;;;28.16;33.58
53246;BME280;39569;51.090;-1.786;2023-05-12T10:31:19;101637.88;;;27.82;33.85
53246;BME280;39569;51.090;-1.786;2023-05-12T10:33:55;101631.56;;;28.38;32.67
53246;BME280;39569;51.090;-1.786;2023-05-12T10:36:22;101624.97;;;28.39;33.22
53246;BME280;39569;51.090;-1.786;2023-05-12T10:38:50;101631.44;;;27.25;34.98
53246;BME280;39569;51.090;-1.786;2023-05-12T10:41:28;101639.44;;;26.51;35.79
53246;BME280;39569;51.090;-1.786;2023-05-12T10:43:55;101632.41;;;25.74;36.72
53246;BME280;39569;51.090;-1.786;2023-05-12T10:46:22;101640.25;;;25.49;37.24
53246;BME280;39569;51.090;-1.786;2023-05-12T10:48:52;101639.19;;;25.88;37.54
53246;BME280;39569;51.090;-1.786;2023-05-12T10:51:21;101644.91;;;25.86;37.44
53246;BME280;39569;51.090;-1.786;2023-05-12T10:53:56;101637.09;;;26.38;36.70
53246;BME280;39569;51.090;-1.786;2023-05-12T10:56:25;101626.09;;;25.90;36.92
53246;BME280;39569;51.090;-1.786;2023-05-12T10:59:05;101626.94;;;25.74;37.19
53246;BME280;39569;51.090;-1.786;2023-05-12T11:01:33;101631.09;;;26.36;36.41
53246;BME280;39569;51.090;-1.786;2023-05-12T11:04:09;101625.53;;;26.31;35.94
53246;BME280;39569;51.090;-1.786;2023-05-12T11:06:35;101622.28;;;26.34;35.55
53246;BME280;39569;51.090;-1.786;2023-05-12T11:09:04;101608.59;;;27.51;33.23
53246;BME280;39569;51.090;-1.786;2023-05-12T11:11:31;101621.69;;;27.80;33.31
53246;BME280;39569;51.090;-1.786;2023-05-12T11:13:59;101625.09;;;26.92;34.09
53246;BME280;39569;51.090;-1.786;2023-05-12T11:16:26;101617.69;;;29.10;32.75
53246;BME280;39569;51.090;-1.786;2023-05-12T11:19:00;101615.19;;;28.88;32.63
53246;BME280;39569;51.090;-1.786;2023-05-12T11:21:28;101612.06;;;28.40;33.48
53246;BME280;39569;51.090;-1.786;2023-05-12T11:23:56;101605.00;;;28.69;32.40
53246;BME280;39569;51.090;-1.786;2023-05-12T11:26:24;101611.03;;;28.66;33.12
53246;BME280;39569;51.090;-1.786;2023-05-12T11:28:51;101603.88;;;29.65;31.80
53246;BME280;39569;51.090;-1.786;2023-05-12T11:31:19;101606.06;;;30.91;30.93
53246;BME280;39569;51.090;-1.786;2023-05-12T11:33:46;101612.44;;;30.43;29.16
53246;BME280;39569;51.090;-1.786;2023-05-12T11:36:13;101620.00;;;30.07;28.98
53246;BME280;39569;51.090;-1.786;2023-05-12T11:38:47;101615.22;;;30.38;30.11
53246;BME280;39569;51.090;-1.786;2023-05-12T11:41:20;101612.88;;;30.60;30.21
53246;BME280;39569;51.090;-1.786;2023-05-12T11:43:49;101608.84;;;29.58;32.56
53246;BME280;39569;51.090;-1.786;2023-05-12T11:46:22;101619.59;;;28.94;32.43
53246;BME280;39569;51.090;-1.786;2023-05-12T11:48:53;101608.31;;;28.81;32.62
53246;BME280;39569;51.090;-1.786;2023-05-12T11:51:21;101610.28;;;29.16;31.34
53246;BME280;39569;51.090;-1.786;2023-05-12T11:53:47;101616.06;;;29.34;30.42
53246;BME280;39569;51.090;-1.786;2023-05-12T11:56:18;101611.91;;;29.22;30.05
53246;BME280;39569;51.090;-1.786;2023-05-12T11:58:56;101627.88;;;28.89;31.35
53246;BME280;39569;51.090;-1.786;2023-05-12T12:01:24;101619.47;;;30.10;29.35
53246;BME280;39569;51.090;-1.786;2023-05-12T12:03:52;101618.47;;;28.70;30.78
53246;BME280;39569;51.090;-1.786;2023-05-12T12:06:20;101619.91;;;29.08;32.75
53246;BME280;39569;51.090;-1.786;2023-05-12T12:08:55;101621.72;;;28.52;32.10
53246;BME280;39569;51.090;-1.786;2023-05-12T12:11:23;101620.22;;;28.20;33.26
53246;BME280;39569;51.090;-1.786;2023-05-12T12:13:53;101618.53;;;28.08;33.17
53246;BME280;39569;51.090;-1.786;2023-05-12T12:16:24;101631.56;;;27.08;33.17
53246;BME280;39569;51.090;-1.786;2023-05-12T12:18:52;101639.47;;;27.31;33.75
53246;BME280;39569;51.090;-1.786;2023-05-12T12:21:19;101633.91;;;26.94;33.67
53246;BME280;39569;51.090;-1.786;2023-05-12T12:23:47;101629.97;;;27.12;34.58
53246;BME280;39569;51.090;-1.786;2023-05-12T12:26:14;101630.09;;;26.95;34.28
53246;BME280;39569;51.090;-1.786;2023-05-12T12:28:41;101627.94;;;28.23;32.91
53246;BME280;39569;51.090;-1.786;2023-05-12T12:31:08;101626.47;;;28.92;31.98
53246;BME280;39569;51.090;-1.786;2023-05-12T12:33:36;101614.06;;;28.54;32.56
53246;BME280;39569;51.090;-1.786;2023-05-12T12:36:03;101621.63;;;30.72;30.60
53246;BME280;39569;51.090;-1.786;2023-05-12T12:38:30;101614.97;;;30.34;29.60
53246;BME280;39569;51.090;-1.786;2023-05-12T12:40:57;101611.66;;;29.18;31.94
53246;BME280;39569;51.090;-1.786;2023-05-12T12:43:24;101621.75;;;28.57;32.96